sensor_id;sensor_type;location;lat;lon;timestamp;P1;durP1;ratioP1;P2;durP2;ratioP2
24086;SDS011;22893;50.572;7.234;2022-12-18T15:46:20;19.77;;;8.40;;
24086;SDS011;22893;50.572;7.234;2022-12-18T15:48:53;19.65;;;9.40;;
24086;SDS011;22893;50.572;7.234;2022-12-18T15:51:29;18.15;;;7.78;;
24086;SDS011;22893;50.572;7.234;2022-12-18T15:54:02;24.85;;;8.85;;
24086;SDS011;22893;50.572;7.234;2022-12-18T15:56:32;23.60;;;9.78;;
24086;SDS011;22893;50.572;7.234;2022-12-18T15:59:18;17.42;;;7.90;;
24086;SDS011;22893;50.572;7.234;2022-12-18T16:01:47;16.90;;;7.72;;
24086;SDS011;22893;50.572;7.234;2022-12-18T16:04:19;15.08;;;7.78;;
24086;SDS011;22893;50.572;7.234;2022-12-18T16:06:48;12.70;;;6.92;;
24086;SDS011;22893;50.572;7.234;2022-12-18T16:09:17;17.17;;;6.72;;
24086;SDS011;22893;50.572;7.234;2022-12-18T16:11:45;12.50;;;5.87;;
24086;SDS011;22893;50.572;7.234;2022-12-18T16:14:26;16.70;;;6.12;;
24086;SDS011;22893;50.572;7.234;2022-12-18T16:16:57;12.37;;;6.05;;
24086;SDS011;22893;50.572;7.234;2022-12-18T16:19:26;17.23;;;6.62;;
24086;SDS011;22893;50.572;7.234;2022-12-18T16:21:55;11.80;;;5.47;;
24086;SDS011;22893;50.572;7.234;2022-12-18T16:24:27;20.65;;;6.00;;
24086;SDS011;22893;50.572;7.234;2022-12-18T16:26:57;11.40;;;5.17;;
24086;SDS011;22893;50.572;7.234;2022-12-18T16:29:26;17.05;;;6.35;;
24086;SDS011;22893;50.572;7.234;2022-12-18T16:31:55;15.35;;;5.05;;
24086;SDS011;22893;50.572;7.234;2022-12-18T16:34:25;13.08;;;5.28;;
24086;SDS011;22893;50.572;7.234;2022-12-18T16:36:54;10.30;;;4.85;;
24086;SDS011;22893;50.572;7.234;2022-12-18T16:39:23;12.85;;;4.90;;
24086;SDS011;22893;50.572;7.234;2022-12-18T16:41:51;14.93;;;5.87;;
24086;SDS011;22893;50.572;7.234;2022-12-18T16:44:18;10.13;;;4.55;;
24086;SDS011;22893;50.572;7.234;2022-12-18T16:46:46;13.28;;;4.58;;
24086;SDS011;22893;50.572;7.234;2022-12-18T16:49:15;10.23;;;4.67;;
24086;SDS011;22893;50.572;7.234;2022-12-18T16:51:48;10.68;;;4.67;;
24086;SDS011;22893;50.572;7.234;2022-12-18T16:54:13;9.68;;;4.03;;
24086;SDS011;22893;50.572;7.234;2022-12-18T16:56:41;7.45;;;3.90;;
24086;SDS011;22893;50.572;7.234;2022-12-18T16:59:14;10.28;;;4.72;;
24086;SDS011;22893;50.572;7.234;2022-12-18T17:01:38;9.33;;;5.08;;
24086;SDS011;22893;50.572;7.234;2022-12-18T17:04:06;11.80;;;4.20;;
24086;SDS011;22893;50.572;7.234;2022-12-18T17:06:35;8.53;;;4.70;;
24086;SDS011;22893;50.572;7.234;2022-12-18T17:09:10;9.45;;;4.33;;
24086;SDS011;22893;50.572;7.234;2022-12-18T17:11:40;10.75;;;4.20;;
24086;SDS011;22893;50.572;7.234;2022-12-18T17:14:09;8.70;;;4.65;;
24086;SDS011;22893;50.572;7.234;2022-12-18T17:16:41;13.22;;;5.17;;
24086;SDS011;22893;50.572;7.234;2022-12-18T17:19:09;14.65;;;4.60;;
24086;SDS011;22893;50.572;7.234;2022-12-18T17:21:37;11.50;;;5.17;;
24086;SDS011;22893;50.572;7.234;2022-12-18T17:24:05;10.15;;;5.70;;
24086;SDS011;22893;50.572;7.234;2022-12-18T17:26:33;11.95;;;4.28;;
24086;SDS011;22893;50.572;7.234;2022-12-18T17:29:00;6.95;;;3.95;;
24086;SDS011;22893;50.572;7.234;2022-12-18T17:31:29;9.90;;;4.58;;
24086;SDS011;22893;50.572;7.234;2022-12-18T17:33:57;10.50;;;5.67;;
24086;SDS011;22893;50.572;7.234;2022-12-18T17:36:26;10.80;;;5.42;;
24086;SDS011;22893;50.572;7.234;2022-12-18T17:38:56;11.55;;;4.42;;
24086;SDS011;22893;50.572;7.234;2022-12-18T17:41:27;7.90;;;4.65;;
24086;SDS011;22893;50.572;7.234;2022-12-18T17:44:01;10.03;;;5.15;;
24086;SDS011;22893;50.572;7.234;2022-12-18T17:46:26;10.35;;;5.58;;
24086;SDS011;22893;50.572;7.234;2022-12-18T17:48:56;9.98;;;4.25;;
24086;SDS011;22893;50.572;7.234;2022-12-18T17:51:24;8.35;;;4.40;;
24086;SDS011;22893;50.572;7.234;2022-12-18T17:53:53;8.48;;;3.90;;
24086;SDS011;22893;50.572;7.234;2022-12-18T17:56:21;9.20;;;4.17;;
24086;SDS011;22893;50.572;7.234;2022-12-18T17:58:50;8.63;;;3.90;;
24086;SDS011;22893;50.572;7.234;2022-12-18T18:01:19;10.20;;;4.65;;
24086;SDS011;22893;50.572;7.234;2022-12-18T18:03:48;10.30;;;4.67;;
24086;SDS011;22893;50.572;7.234;2022-12-18T18:06:16;8.85;;;3.72;;
24086;SDS011;22893;50.572;7.234;2022-12-18T18:08:44;11.25;;;5.20;;
24086;SDS011;22893;50.572;7.234;2022-12-18T18:11:13;7.85;;;4.25;;
24086;SDS011;22893;50.572;7.234;2022-12-18T18:14:00;9.18;;;4.78;;
24086;SDS011;22893;50.572;7.234;2022-12-18T18:19:01;8.63;;;3.35;;
24086;SDS011;22893;50.572;7.234;2022-12-18T18:21:30;6.65;;;3.50;;
24086;SDS011;22893;50.572;7.234;2022-12-18T18:23:59;8.58;;;3.65;;
24086;SDS011;22893;50.572;7.234;2022-12-18T18:26:33;9.50;;;3.58;;
24086;SDS011;22893;50.572;7.234;2022-12-18T18:28:58;12.03;;;4.50;;
24086;SDS011;22893;50.572;7.234;2022-12-18T18:31:28;8.98;;;4.35;;
24086;SDS011;22893;50.572;7.234;2022-12-18T18:33:56;10.78;;;4.00;;
24086;SDS011;22893;50.572;7.234;2022-12-18T18:36:23;10.45;;;3.92;;
24086;SDS011;22893;50.572;7.234;2022-12-18T18:38:52;5.50;;;3.47;;
24086;SDS011;22893;50.572;7.234;2022-12-18T18:41:20;4.78;;;3.12;;
24086;SDS011;22893;50.572;7.234;2022-12-18T18:43:52;10.28;;;4.20;;
24086;SDS011;22893;50.572;7.234;2022-12-18T18:46:22;7.12;;;3.47;;
24086;SDS011;22893;50.572;7.234;2022-12-18T18:48:50;7.00;;;4.15;;
24086;SDS011;22893;50.572;7.234;2022-12-18T18:51:18;8.80;;;3.87;;
24086;SDS011;22893;50.572;7.234;2022-12-18T18:53:46;6.22;;;3.60;;
24086;SDS011;22893;50.572;7.234;2022-12-18T18:56:16;9.00;;;3.50;;
24086;SDS011;22893;50.572;7.234;2022-12-18T18:58:46;8.53;;;3.67;;
24086;SDS011;22893;50.572;7.234;2022-12-18T19:01:14;5.22;;;3.17;;
24086;SDS011;22893;50.572;7.234;2022-12-18T19:03:44;7.62;;;3.22;;
24086;SDS011;22893;50.572;7.234;2022-12-18T19:06:17;9.15;;;3.58;;
24086;SDS011;22893;50.572;7.234;2022-12-18T19:08:46;8.63;;;3.72;;
24086;SDS011;22893;50.572;7.234;2022-12-18T19:11:13;7.40;;;3.47;;
24086;SDS011;22893;50.572;7.234;2022-12-18T19:14:02;5.60;;;2.67;;
24086;SDS011;22893;50.572;7.234;2022-12-18T19:16:31;7.05;;;3.25;;
24086;SDS011;22893;50.572;7.234;2022-12-18T19:19:00;8.70;;;3.72;;
24086;SDS011;22893;50.572;7.234;2022-12-18T19:21:50;6.67;;;3.60;;
24086;SDS011;22893;50.572;7.234;2022-12-18T19:24:17;6.62;;;3.37;;
24086;SDS011;22893;50.572;7.234;2022-12-18T19:26:45;8.45;;;3.83;;
24086;SDS011;22893;50.572;7.234;2022-12-18T19:29:12;7.30;;;3.62;;
24086;SDS011;22893;50.572;7.234;2022-12-18T19:31:40;6.15;;;3.77;;
24086;SDS011;22893;50.572;7.234;2022-12-18T19:34:08;7.78;;;4.05;;
24086;SDS011;22893;50.572;7.234;2022-12-18T19:39:23;5.83;;;3.22;;
24086;SDS011;22893;50.572;7.234;2022-12-18T19:41:51;7.15;;;3.55;;
24086;SDS011;22893;50.572;7.234;2022-12-18T19:44:19;6.37;;;3.25;;
24086;SDS011;22893;50.572;7.234;2022-12-18T19:46:48;5.67;;;3.10;;
24086;SDS011;22893;50.572;7.234;2022-12-18T19:49:17;7.12;;;3.47;;
24086;SDS011;22893;50.572;7.234;2022-12-18T19:51:46;5.85;;;3.20;;
24086;SDS011;22893;50.572;7.234;2022-12-18T19:54:14;7.37;;;3.72;;
24086;SDS011;22893;50.572;7.234;2022-12-18T19:56:41;7.62;;;3.80;;
24086;SDS011;22893;50.572;7.234;2022-12-18T19:59:09;6.58;;;3.77;;
24086;SDS011;22893;50.572;7.234;2022-12-18T20:01:37;8.98;;;3.52;;
24086;SDS011;22893;50.572;7.234;2022-12-18T20:04:04;9.18;;;4.05;;
24086;SDS011;22893;50.572;7.234;2022-12-18T20:06:33;6.35;;;3.17;;
24086;SDS011;22893;50.572;7.234;2022-12-18T20:09:14;8.75;;;3.90;;
24086;SDS011;22893;50.572;7.234;2022-12-18T20:11:43;7.60;;;3.72;;
24086;SDS011;22893;50.572;7.234;2022-12-18T20:14:11;8.48;;;3.37;;
24086;SDS011;22893;50.572;7.234;2022-12-18T20:16:40;7.22;;;3.72;;
24086;SDS011;22893;50.572;7.234;2022-12-18T20:19:08;9.28;;;3.42;;
24086;SDS011;22893;50.572;7.234;2022-12-18T20:21:37;9.73;;;3.87;;
24086;SDS011;22893;50.572;7.234;2022-12-18T20:24:05;10.03;;;3.47;;
24086;SDS011;22893;50.572;7.234;2022-12-18T20:26:33;5.90;;;3.45;;
24086;SDS011;22893;50.572;7.234;2022-12-18T20:29:01;7.80;;;4.25;;
24086;SDS011;22893;50.572;7.234;2022-12-18T20:31:29;5.62;;;3.47;;
24086;SDS011;22893;50.572;7.234;2022-12-18T20:33:56;7.10;;;3.10;;
24086;SDS011;22893;50.572;7.234;2022-12-18T20:36:24;5.28;;;3.35;;
24086;SDS011;22893;50.572;7.234;2022-12-18T20:38:51;8.60;;;3.25;;
24086;SDS011;22893;50.572;7.234;2022-12-18T20:41:21;7.40;;;3.40;;
24086;SDS011;22893;50.572;7.234;2022-12-18T20:43:49;6.95;;;3.65;;
24086;SDS011;22893;50.572;7.234;2022-12-18T20:46:16;10.45;;;4.47;;
24086;SDS011;22893;50.572;7.234;2022-12-18T20:48:45;5.17;;;2.98;;
24086;SDS011;22893;50.572;7.234;2022-12-18T20:51:14;7.05;;;3.33;;
24086;SDS011;22893;50.572;7.234;2022-12-18T20:53:43;7.22;;;3.47;;
24086;SDS011;22893;50.572;7.234;2022-12-18T20:56:16;6.47;;;3.22;;
24086;SDS011;22893;50.572;7.234;2022-12-18T20:58:45;7.28;;;3.60;;
24086;SDS011;22893;50.572;7.234;2022-12-18T21:01:14;6.58;;;3.20;;
24086;SDS011;22893;50.572;7.234;2022-12-18T21:03:44;7.00;;;3.50;;
24086;SDS011;22893;50.572;7.234;2022-12-18T21:06:12;7.75;;;3.42;;
24086;SDS011;22893;50.572;7.234;2022-12-18T21:08:42;7.90;;;3.47;;
24086;SDS011;22893;50.572;7.234;2022-12-18T21:14:17;6.53;;;3.22;;
24086;SDS011;22893;50.572;7.234;2022-12-18T21:16:48;7.05;;;2.92;;
24086;SDS011;22893;50.572;7.234;2022-12-18T21:19:17;8.75;;;3.83;;
24086;SDS011;22893;50.572;7.234;2022-12-18T21:21:48;8.80;;;3.77;;
24086;SDS011;22893;50.572;7.234;2022-12-18T21:24:16;7.97;;;3.40;;
24086;SDS011;22893;50.572;7.234;2022-12-18T21:26:45;5.40;;;3.08;;
24086;SDS011;22893;50.572;7.234;2022-12-18T21:29:15;7.25;;;3.65;;
24086;SDS011;22893;50.572;7.234;2022-12-18T21:31:47;5.80;;;3.40;;
24086;SDS011;22893;50.572;7.234;2022-12-18T21:34:17;5.05;;;2.98;;
24086;SDS011;22893;50.572;7.234;2022-12-18T21:36:47;10.30;;;4.17;;
24086;SDS011;22893;50.572;7.234;2022-12-18T21:39:15;8.25;;;3.27;;
24086;SDS011;22893;50.572;7.234;2022-12-18T21:41:43;6.87;;;2.92;;
24086;SDS011;22893;50.572;7.234;2022-12-18T21:44:28;8.03;;;3.87;;
24086;SDS011;22893;50.572;7.234;2022-12-18T21:46:56;7.42;;;3.08;;
24086;SDS011;22893;50.572;7.234;2022-12-18T21:49:24;10.32;;;4.42;;
24086;SDS011;22893;50.572;7.234;2022-12-18T21:51:53;8.93;;;4.08;;
24086;SDS011;22893;50.572;7.234;2022-12-18T21:54:22;6.37;;;3.40;;
24086;SDS011;22893;50.572;7.234;2022-12-18T21:56:52;7.92;;;3.50;;
24086;SDS011;22893;50.572;7.234;2022-12-18T21:59:21;7.40;;;3.40;;
24086;SDS011;22893;50.572;7.234;2022-12-18T22:01:51;8.45;;;3.37;;
24086;SDS011;22893;50.572;7.234;2022-12-18T22:04:20;5.80;;;3.10;;
24086;SDS011;22893;50.572;7.234;2022-12-18T22:06:48;6.28;;;3.25;;
24086;SDS011;22893;50.572;7.234;2022-12-18T22:09:17;7.75;;;3.70;;
24086;SDS011;22893;50.572;7.234;2022-12-18T22:11:47;7.08;;;3.83;;
24086;SDS011;22893;50.572;7.234;2022-12-18T22:14:19;4.75;;;2.67;;
24086;SDS011;22893;50.572;7.234;2022-12-18T22:16:48;5.90;;;3.15;;
24086;SDS011;22893;50.572;7.234;2022-12-18T22:19:17;8.13;;;3.27;;
24086;SDS011;22893;50.572;7.234;2022-12-18T22:21:46;6.15;;;3.27;;
24086;SDS011;22893;50.572;7.234;2022-12-18T22:24:15;5.55;;;2.92;;
24086;SDS011;22893;50.572;7.234;2022-12-18T22:26:48;6.85;;;3.50;;
24086;SDS011;22893;50.572;7.234;2022-12-18T22:29:18;8.45;;;3.65;;
24086;SDS011;22893;50.572;7.234;2022-12-18T22:32:06;8.25;;;3.90;;
24086;SDS011;22893;50.572;7.234;2022-12-18T22:34:36;9.73;;;3.85;;
24086;SDS011;22893;50.572;7.234;2022-12-18T22:37:04;6.25;;;3.30;;
24086;SDS011;22893;50.572;7.234;2022-12-18T22:39:32;6.08;;;3.45;;
24086;SDS011;22893;50.572;7.234;2022-12-18T22:41:59;7.72;;;3.58;;
24086;SDS011;22893;50.572;7.234;2022-12-18T22:44:27;7.03;;;3.20;;
24086;SDS011;22893;50.572;7.234;2022-12-18T22:46:54;10.63;;;3.95;;
24086;SDS011;22893;50.572;7.234;2022-12-18T22:49:23;7.87;;;3.05;;
24086;SDS011;22893;50.572;7.234;2022-12-18T22:51:51;5.58;;;3.15;;
24086;SDS011;22893;50.572;7.234;2022-12-18T22:54:21;9.00;;;3.75;;
24086;SDS011;22893;50.572;7.234;2022-12-18T22:56:48;11.78;;;3.37;;
24086;SDS011;22893;50.572;7.234;2022-12-18T22:59:17;7.53;;;3.80;;
24086;SDS011;22893;50.572;7.234;2022-12-18T23:01:46;5.53;;;2.70;;
24086;SDS011;22893;50.572;7.234;2022-12-18T23:04:16;8.73;;;3.98;;
24086;SDS011;22893;50.572;7.234;2022-12-18T23:06:44;8.88;;;3.55;;
24086;SDS011;22893;50.572;7.234;2022-12-18T23:09:16;7.05;;;3.70;;
24086;SDS011;22893;50.572;7.234;2022-12-18T23:11:45;10.60;;;3.58;;
